Time;durP1;ratioP1;P1;durP2;ratioP2;P2;SDS_P1;SDS_P2;PMS_P1;PMS_P2;Temp;Humidity;BMP_temperature;BMP_pressure;BME280_temperature;BME280_humidity;BME280_pressure;Samples;Min_cycle;Max_cycle;Signal;HPM_P1;HPM_P2
2022/01/28 00:01:57;;;;;;;1.13;1.13;;;;;;;;;;5085956;28;20047;-81
2022/01/28 00:04:23;;;;;;;1.95;1.85;;;;;;;;;;5080505;28;20042;-81
2022/01/28 00:06:49;;;;;;;1.87;1.77;;;;;;;;;;5061415;28;20031;-81
2022/01/28 00:09:15;;;;;;;0.43;0.43;;;;;;;;;;5070638;28;20047;-81
2022/01/28 00:11:41;;;;;;;6.60;2.30;;;;;;;;;;5083417;28;20092;-80
2022/01/28 00:17:12;;;;;;;1.40;1.30;;;;;;;;;;5079112;28;20808;-80
2022/01/28 00:38:52;;;;;;;1.58;1.48;;;;;;;;;;5018955;28;20151;-80
2022/01/28 00:41:18;;;;;;;1.40;0.55;;;;;;;;;;5020017;28;20115;-81
2022/01/28 00:43:44;;;;;;;7.03;1.43;;;;;;;;;;5019226;28;20076;-80
2022/01/28 00:46:11;;;;;;;1.13;1.10;;;;;;;;;;5017552;28;20647;-80
2022/01/28 00:48:37;;;;;;;1.17;1.15;;;;;;;;;;5018193;28;20064;-80
2022/01/28 00:51:03;;;;;;;4.88;2.85;;;;;;;;;;5018013;28;20503;-80
2022/01/28 00:53:29;;;;;;;0.75;0.75;;;;;;;;;;5019785;28;20053;-79
2022/01/28 00:55:57;;;;;;;0.38;0.38;;;;;;;;;;5018507;28;20041;-80
2022/01/28 00:58:23;;;;;;;1.77;1.15;;;;;;;;;;5018601;28;20068;-79
2022/01/28 01:00:49;;;;;;;1.00;1.00;;;;;;;;;;5019342;28;20033;-80
2022/01/28 01:03:15;;;;;;;1.83;1.73;;;;;;;;;;5018926;28;20577;-80
2022/01/28 01:05:41;;;;;;;5.13;4.77;;;;;;;;;;5078627;28;20577;-80
2022/01/28 01:08:08;;;;;;;3.90;1.30;;;;;;;;;;5081217;28;20495;-79
2022/01/28 01:10:34;;;;;;;2.00;1.83;;;;;;;;;;5081645;28;20051;-80
2022/01/28 01:13:01;;;;;;;13.75;3.58;;;;;;;;;;5081463;28;20274;-80
2022/01/28 01:15:33;;;;;;;5.28;2.15;;;;;;;;;;5080916;28;20048;-79
2022/01/28 01:18:10;;;;;;;1.83;1.38;;;;;;;;;;5081107;28;20160;-80
2022/01/28 01:23:21;;;;;;;9.50;2.67;;;;;;;;;;5078482;28;20028;-80
2022/01/28 01:25:55;;;;;;;1.98;1.73;;;;;;;;;;5079108;28;20023;-80
2022/01/28 01:28:23;;;;;;;1.38;1.33;;;;;;;;;;5082897;28;20073;-79
2022/01/28 01:30:49;;;;;;;1.90;1.80;;;;;;;;;;5080514;28;20835;-81
2022/01/28 01:33:18;;;;;;;4.40;2.13;;;;;;;;;;5082594;28;20032;-81
2022/01/28 01:35:44;;;;;;;1.75;1.65;;;;;;;;;;5079342;28;20040;-81
2022/01/28 01:38:10;;;;;;;3.33;3.03;;;;;;;;;;5081373;28;20035;-80
2022/01/28 01:40:49;;;;;;;1.38;1.27;;;;;;;;;;5084660;28;20036;-81
2022/01/28 01:54:10;;;;;;;3.05;2.78;;;;;;;;;;5020567;28;20559;-82
2022/01/28 01:56:38;;;;;;;5.23;2.80;;;;;;;;;;5017476;28;20096;-82
2022/01/28 01:59:04;;;;;;;17.00;2.80;;;;;;;;;;5018580;28;20041;-81
2022/01/28 02:01:30;;;;;;;2.92;1.85;;;;;;;;;;5021070;28;20826;-82
2022/01/28 02:03:56;;;;;;;2.13;1.53;;;;;;;;;;5016926;28;20501;-82
2022/01/28 02:06:23;;;;;;;1.95;1.85;;;;;;;;;;5018747;28;20276;-82
2022/01/28 02:08:49;;;;;;;;;;;;;;;;;;5018920;28;20037;-81
2022/01/28 02:11:15;;;;;;;1.92;1.80;;;;;;;;;;5019154;28;19913;-82
2022/01/28 02:13:42;;;;;;;1.80;1.70;;;;;;;;;;5018362;28;20084;-81
2022/01/28 02:16:09;;;;;;;3.83;2.72;;;;;;;;;;5014710;28;20579;-82
2022/01/28 02:18:35;;;;;;;;;;;;;;;;;;5003108;28;20114;-82
2022/01/28 02:21:07;;;;;;;2.20;1.83;;;;;;;;;;5002237;28;19913;-81
2022/01/28 02:23:33;;;;;;;1.33;1.13;;;;;;;;;;5018769;28;20087;-81
2022/01/28 02:26:01;;;;;;;1.15;1.15;;;;;;;;;;5053761;28;20145;-81
2022/01/28 02:28:30;;;;;;;1.70;1.38;;;;;;;;;;5082780;28;20547;-81
2022/01/28 02:30:56;;;;;;;0.98;0.98;;;;;;;;;;5079341;28;20036;-81
2022/01/28 02:33:24;;;;;;;2.20;2.10;;;;;;;;;;5080139;28;20024;-81
2022/01/28 02:35:51;;;;;;;6.60;2.75;;;;;;;;;;5079089;28;20388;-80
2022/01/28 02:38:18;;;;;;;3.28;1.80;;;;;;;;;;5082600;28;20096;-81
2022/01/28 02:40:49;;;;;;;2.28;1.88;;;;;;;;;;5081077;28;20032;-80
2022/01/28 02:45:43;;;;;;;2.43;2.23;;;;;;;;;;5077737;28;20040;-80
2022/01/28 02:48:16;;;;;;;2.70;1.85;;;;;;;;;;5081891;28;20020;-80
2022/01/28 02:51:00;;;;;;;1.13;1.13;;;;;;;;;;5080550;28;20592;-81
2022/01/28 02:53:29;;;;;;;2.47;2.28;;;;;;;;;;5079707;28;20131;-81
2022/01/28 02:56:02;;;;;;;1.48;1.38;;;;;;;;;;5078527;28;20110;-80
2022/01/28 02:58:28;;;;;;;2.38;2.13;;;;;;;;;;5078953;28;20150;-80
2022/01/28 03:00:57;;;;;;;1.70;1.60;;;;;;;;;;5079823;28;20056;-80
2022/01/28 03:03:23;;;;;;;6.90;1.67;;;;;;;;;;5078365;28;20081;-80
2022/01/28 03:05:53;;;;;;;1.95;1.85;;;;;;;;;;5078272;28;20046;-81
2022/01/28 03:08:22;;;;;;;1.02;1.02;;;;;;;;;;5079867;28;20028;-80
2022/01/28 03:16:20;;;;;;;4.97;2.78;;;;;;;;;;5078845;28;20070;-81
2022/01/28 03:18:53;;;;;;;2.08;1.95;;;;;;;;;;5078694;28;20028;-81
2022/01/28 03:21:54;;;;;;;1.88;1.77;;;;;;;;;;5059444;28;20032;-81
2022/01/28 03:24:13;;;;;;;2.25;2.05;;;;;;;;;;5073208;28;20030;-81
2022/01/28 03:26:39;;;;;;;1.83;1.67;;;;;;;;;;5078043;28;20040;-81
2022/01/28 03:29:06;;;;;;;3.75;2.65;;;;;;;;;;5081339;28;20749;-82
2022/01/28 03:31:32;;;;;;;1.75;1.65;;;;;;;;;;5072784;28;20121;-81
2022/01/28 03:33:59;;;;;;;1.90;1.75;;;;;;;;;;5081173;28;20165;-82
2022/01/28 03:36:25;;;;;;;1.37;1.27;;;;;;;;;;5079598;28;20039;-82
2022/01/28 03:38:51;;;;;;;2.17;1.65;;;;;;;;;;5063120;28;20035;-81
2022/01/28 03:41:17;;;;;;;3.73;1.43;;;;;;;;;;5078133;28;20101;-80
2022/01/28 03:43:44;;;;;;;0.77;0.77;;;;;;;;;;5082262;28;20028;-80
2022/01/28 03:46:10;;;;;;;5.05;2.67;;;;;;;;;;5080011;28;20275;-80
2022/01/28 03:48:36;;;;;;;2.92;1.75;;;;;;;;;;5079991;28;20052;-81
2022/01/28 03:51:02;;;;;;;2.42;2.33;;;;;;;;;;5064092;28;20032;-80
2022/01/28 03:53:28;;;;;;;1.30;1.17;;;;;;;;;;5078205;28;20040;-79
2022/01/28 03:55:57;;;;;;;0.67;0.67;;;;;;;;;;5080403;28;20070;-80
2022/01/28 03:58:23;;;;;;;1.48;1.42;;;;;;;;;;5082758;28;20031;-79
2022/01/28 04:00:50;;;;;;;1.35;1.33;;;;;;;;;;5080388;28;20036;-80
2022/01/28 04:13:45;;;;;;;2.92;1.00;;;;;;;;;;5083241;28;20050;-80
2022/01/28 04:18:44;;;;;;;8.00;2.28;;;;;;;;;;5084701;28;20036;-81
2022/01/28 04:21:10;;;;;;;2.35;1.70;;;;;;;;;;5081681;28;20405;-81
2022/01/28 04:23:36;;;;;;;2.88;2.67;;;;;;;;;;5046501;28;20994;-82
2022/01/28 04:26:02;;;;;;;1.00;1.00;;;;;;;;;;5081675;28;20590;-80
2022/01/28 04:28:28;;;;;;;1.83;1.25;;;;;;;;;;5084497;28;20035;-80
2022/01/28 04:30:54;;;;;;;2.05;1.83;;;;;;;;;;5080862;28;20059;-80
2022/01/28 04:33:20;;;;;;;1.42;1.42;;;;;;;;;;5080841;28;20606;-81
2022/01/28 04:35:49;;;;;;;3.00;2.43;;;;;;;;;;5069438;28;20453;-81
2022/01/28 04:38:35;;;;;;;1.48;1.45;;;;;;;;;;5083754;28;20020;-81
2022/01/28 04:41:13;;;;;;;1.98;1.17;;;;;;;;;;5066261;28;20494;-82
2022/01/28 04:43:46;;;;;;;0.68;0.63;;;;;;;;;;5084902;28;20475;-82
2022/01/28 04:49:15;;;;;;;1.05;1.05;;;;;;;;;;5082670;28;20028;-82
2022/01/28 04:57:05;;;;;;;1.02;0.95;;;;;;;;;;5082457;28;20134;-82
2022/01/28 04:59:48;;;;;;;0.85;0.85;;;;;;;;;;5079765;28;20318;-82
2022/01/28 05:08:33;;;;;;;1.30;1.23;;;;;;;;;;5019971;28;20061;-81
2022/01/28 05:27:06;;;;;;;1.35;1.25;;;;;;;;;;4980560;28;20486;-80
2022/01/28 05:29:32;;;;;;;0.68;0.68;;;;;;;;;;4977658;28;20521;-80
2022/01/28 05:31:58;;;;;;;9.70;1.90;;;;;;;;;;4968718;28;20066;-79
2022/01/28 05:34:26;;;;;;;2.38;1.50;;;;;;;;;;4969380;28;20026;-80
2022/01/28 05:36:52;;;;;;;0.50;0.50;;;;;;;;;;5036470;28;20079;-79
2022/01/28 05:39:19;;;;;;;3.38;3.10;;;;;;;;;;5030165;28;20119;-81
2022/01/28 05:41:45;;;;;;;1.77;1.40;;;;;;;;;;5022017;28;20033;-80
2022/01/28 05:44:11;;;;;;;2.23;1.97;;;;;;;;;;5040218;28;20051;-82
2022/01/28 05:46:37;;;;;;;1.13;0.83;;;;;;;;;;5036654;28;20047;-82
2022/01/28 05:49:03;;;;;;;1.85;1.15;;;;;;;;;;5040973;28;20289;-82
2022/01/28 05:51:29;;;;;;;1.95;0.57;;;;;;;;;;5035059;28;20532;-82
2022/01/28 05:53:58;;;;;;;2.33;2.23;;;;;;;;;;5040979;28;20127;-82
2022/01/28 05:56:25;;;;;;;1.58;1.48;;;;;;;;;;5040450;28;20041;-83
2022/01/28 05:58:51;;;;;;;0.90;0.90;;;;;;;;;;5025134;28;20033;-82
2022/01/28 06:01:17;;;;;;;1.67;1.33;;;;;;;;;;5045582;28;20037;-80
2022/01/28 06:03:44;;;;;;;3.67;2.33;;;;;;;;;;5046082;28;20045;-85
2022/01/28 06:06:18;;;;;;;1.35;1.35;;;;;;;;;;5081920;28;20039;-89
2022/01/28 06:08:45;;;;;;;2.65;2.15;;;;;;;;;;5081086;28;20041;-84
2022/01/28 06:11:11;;;;;;;0.88;0.88;;;;;;;;;;5082602;28;20470;-84
2022/01/28 06:13:37;;;;;;;1.77;1.67;;;;;;;;;;5080080;28;20032;-84
2022/01/28 06:16:03;;;;;;;0.57;0.57;;;;;;;;;;5078810;28;20081;-84
2022/01/28 06:18:29;;;;;;;0.93;0.93;;;;;;;;;;5061242;28;20028;-85
2022/01/28 06:20:55;;;;;;;0.70;0.70;;;;;;;;;;5075635;28;20486;-85
2022/01/28 06:23:21;;;;;;;9.00;4.43;;;;;;;;;;5078970;28;20271;-84
2022/01/28 06:25:49;;;;;;;3.97;2.27;;;;;;;;;;5097877;28;20035;-84
2022/01/28 06:28:15;;;;;;;4.95;3.55;;;;;;;;;;5082291;28;20402;-85
2022/01/28 06:30:41;;;;;;;7.07;4.47;;;;;;;;;;5084082;28;20040;-83
2022/01/28 06:33:07;;;;;;;2.17;1.52;;;;;;;;;;5081990;28;20024;-84
2022/01/28 06:35:33;;;;;;;3.40;2.80;;;;;;;;;;5062052;28;20047;-83
2022/01/28 06:37:59;;;;;;;2.87;2.67;;;;;;;;;;5068513;28;20039;-86
2022/01/28 06:40:25;;;;;;;8.18;5.68;;;;;;;;;;5080496;28;20105;-84
2022/01/28 06:42:51;;;;;;;3.33;3.08;;;;;;;;;;5077253;28;20493;-85
2022/01/28 06:45:17;;;;;;;0.97;0.97;;;;;;;;;;5078301;28;20038;-88
2022/01/28 06:47:43;;;;;;;1.70;1.67;;;;;;;;;;5082166;28;20566;-89
2022/01/28 06:50:10;;;;;;;2.10;1.75;;;;;;;;;;5066844;28;20039;-87
2022/01/28 06:52:37;;;;;;;1.23;1.17;;;;;;;;;;5056129;28;20574;-86
2022/01/28 06:55:03;;;;;;;3.33;3.00;;;;;;;;;;5080400;28;20167;-84
2022/01/28 06:57:31;;;;;;;0.80;0.80;;;;;;;;;;5074036;28;20056;-87
2022/01/28 06:59:58;;;;;;;3.05;2.85;;;;;;;;;;5076504;28;20748;-85
2022/01/28 07:02:24;;;;;;;0.75;0.75;;;;;;;;;;5063042;28;20036;-86
2022/01/28 07:04:50;;;;;;;0.55;0.55;;;;;;;;;;5081385;28;20016;-87
2022/01/28 07:07:17;;;;;;;3.10;2.90;;;;;;;;;;5082044;28;20035;-86
2022/01/28 07:09:43;;;;;;;5.63;3.60;;;;;;;;;;5081044;28;20032;-85
2022/01/28 07:12:09;;;;;;;1.58;1.48;;;;;;;;;;5079912;28;20032;-85
2022/01/28 07:14:35;;;;;;;1.63;1.55;;;;;;;;;;5070160;28;20032;-86
2022/01/28 07:17:02;;;;;;;1.25;0.68;;;;;;;;;;5081009;28;20036;-85
2022/01/28 07:19:28;;;;;;;2.23;1.53;;;;;;;;;;5079375;28;20043;-86
2022/01/28 07:21:54;;;;;;;1.23;1.23;;;;;;;;;;5070566;28;20036;-85
2022/01/28 07:24:20;;;;;;;1.67;1.58;;;;;;;;;;5075309;28;20101;-85
2022/01/28 07:26:46;;;;;;;0.77;0.77;;;;;;;;;;5077438;28;20029;-91
2022/01/28 07:29:13;;;;;;;1.20;1.20;;;;;;;;;;5082852;28;20039;-90
2022/01/28 07:31:39;;;;;;;1.38;1.23;;;;;;;;;;5069310;28;20494;-93
2022/01/28 07:34:06;;;;;;;1.77;1.67;;;;;;;;;;5069619;28;20047;-91
2022/01/28 07:36:33;;;;;;;3.30;2.50;;;;;;;;;;5068939;28;20217;-91
2022/01/28 07:38:59;;;;;;;;;;;;;;;;;;5074626;28;20032;-92
2022/01/28 07:41:26;;;;;;;0.55;0.55;;;;;;;;;;5082774;28;19918;-86
2022/01/28 07:43:52;;;;;;;0.25;0.25;;;;;;;;;;5066131;28;20032;-85
2022/01/28 07:46:18;;;;;;;0.87;0.50;;;;;;;;;;5085456;28;20108;-85
2022/01/28 07:48:45;;;;;;;0.87;0.87;;;;;;;;;;5075577;28;20086;-82
2022/01/28 07:51:11;;;;;;;1.17;1.17;;;;;;;;;;5066095;28;20393;-82
2022/01/28 07:53:37;;;;;;;0.93;0.90;;;;;;;;;;5082477;28;20044;-89
2022/01/28 07:56:03;;;;;;;1.70;1.60;;;;;;;;;;5084844;28;20530;-87
2022/01/28 07:58:29;;;;;;;2.35;2.20;;;;;;;;;;5083760;28;20056;-88
2022/01/28 08:00:55;;;;;;;5.18;1.35;;;;;;;;;;5086885;28;20062;-89
2022/01/28 08:03:21;;;;;;;1.67;1.58;;;;;;;;;;5079589;28;20602;-88
2022/01/28 08:05:47;;;;;;;1.88;1.77;;;;;;;;;;5073499;28;20119;-89
2022/01/28 08:08:14;;;;;;;5.97;1.97;;;;;;;;;;5068589;28;20028;-88
2022/01/28 08:10:40;;;;;;;4.57;2.28;;;;;;;;;;5086926;28;20109;-88
2022/01/28 08:13:07;;;;;;;2.53;1.40;;;;;;;;;;5073104;28;20039;-89
2022/01/28 08:15:34;;;;;;;0.77;0.77;;;;;;;;;;5077222;28;20040;-88
2022/01/28 08:18:00;;;;;;;1.58;1.48;;;;;;;;;;5082155;28;20313;-88
2022/01/28 08:20:26;;;;;;;2.30;2.10;;;;;;;;;;5077536;28;20028;-86
2022/01/28 08:22:54;;;;;;;2.37;2.27;;;;;;;;;;5051458;28;20032;-86
2022/01/28 08:25:22;;;;;;;0.95;0.95;;;;;;;;;;5061987;28;20048;-86
2022/01/28 08:27:48;;;;;;;0.60;0.60;;;;;;;;;;5081028;28;20028;-86
2022/01/28 08:30:16;;;;;;;3.72;1.95;;;;;;;;;;5085376;28;20027;-86
2022/01/28 08:32:42;;;;;;;1.95;1.13;;;;;;;;;;5083383;28;20698;-86
2022/01/28 08:35:08;;;;;;;1.40;0.97;;;;;;;;;;5063264;28;20140;-85
2022/01/28 08:37:34;;;;;;;2.05;1.95;;;;;;;;;;5091180;28;20282;-86
2022/01/28 08:40:01;;;;;;;1.65;1.55;;;;;;;;;;5047006;28;20032;-85
2022/01/28 08:42:28;;;;;;;1.02;1.02;;;;;;;;;;5080190;28;20024;-86
2022/01/28 08:44:54;;;;;;;2.13;1.88;;;;;;;;;;5072353;28;20032;-86
2022/01/28 08:47:20;;;;;;;3.78;1.63;;;;;;;;;;5082775;28;20032;-87
2022/01/28 08:49:46;;;;;;;1.03;1.03;;;;;;;;;;5076283;28;20484;-86
2022/01/28 08:52:13;;;;;;;1.50;1.23;;;;;;;;;;5072715;28;20051;-86
2022/01/28 08:54:39;;;;;;;2.55;2.03;;;;;;;;;;5078451;28;20050;-86
2022/01/28 08:57:05;;;;;;;1.55;1.45;;;;;;;;;;5070632;28;20038;-86
2022/01/28 08:59:31;;;;;;;1.47;1.37;;;;;;;;;;5080851;28;20036;-86
2022/01/28 09:01:57;;;;;;;3.05;2.80;;;;;;;;;;5067301;28;20078;-86
2022/01/28 09:04:23;;;;;;;0.87;0.83;;;;;;;;;;5091057;28;20557;-86
2022/01/28 09:06:49;;;;;;;11.40;2.90;;;;;;;;;;5078324;28;20028;-85
2022/01/28 09:09:18;;;;;;;1.43;1.33;;;;;;;;;;5077234;28;20141;-86
2022/01/28 09:12:06;;;;;;;1.13;1.05;;;;;;;;;;5074159;28;20110;-86
2022/01/28 09:14:32;;;;;;;2.45;2.30;;;;;;;;;;5076062;28;20024;-84
2022/01/28 09:16:58;;;;;;;2.47;2.28;;;;;;;;;;5081613;28;20138;-85
2022/01/28 09:19:24;;;;;;;2.17;1.97;;;;;;;;;;5074748;28;20020;-83
2022/01/28 09:21:50;;;;;;;2.07;1.97;;;;;;;;;;5082312;28;20605;-83
2022/01/28 09:24:17;;;;;;;10.48;2.28;;;;;;;;;;5084263;28;20028;-83
2022/01/28 09:26:43;;;;;;;0.77;0.77;;;;;;;;;;5070396;28;20592;-83
2022/01/28 09:29:09;;;;;;;5.65;2.58;;;;;;;;;;5068300;28;20419;-83
2022/01/28 09:31:35;;;;;;;1.38;1.35;;;;;;;;;;5070490;28;20042;-82
2022/01/28 09:34:02;;;;;;;1.87;1.77;;;;;;;;;;5082807;28;20032;-83
2022/01/28 09:36:28;;;;;;;2.13;1.65;;;;;;;;;;5083425;28;20772;-83
2022/01/28 09:38:54;;;;;;;2.40;2.13;;;;;;;;;;5081262;28;20030;-81
2022/01/28 09:41:22;;;;;;;10.57;3.35;;;;;;;;;;5084873;28;20024;-80
2022/01/28 09:43:48;;;;;;;4.22;1.83;;;;;;;;;;5083311;28;20034;-79
2022/01/28 09:46:14;;;;;;;2.00;1.77;;;;;;;;;;5080333;28;20545;-79
2022/01/28 09:48:40;;;;;;;8.05;4.25;;;;;;;;;;5082796;28;20206;-79
2022/01/28 09:51:07;;;;;;;9.10;6.22;;;;;;;;;;5073966;28;20035;-79
2022/01/28 09:53:33;;;;;;;8.88;4.82;;;;;;;;;;5062582;28;20048;-79
2022/01/28 09:56:00;;;;;;;4.73;4.27;;;;;;;;;;5081824;28;20047;-80
2022/01/28 09:58:26;;;;;;;8.70;4.50;;;;;;;;;;5080715;28;20386;-79
2022/01/28 10:00:52;;;;;;;3.30;1.63;;;;;;;;;;5071500;28;20028;-80
2022/01/28 10:03:19;;;;;;;3.85;1.95;;;;;;;;;;5077138;28;20054;-79
2022/01/28 10:05:50;;;;;;;3.22;1.48;;;;;;;;;;5083617;28;20039;-79
2022/01/28 10:08:24;;;;;;;3.53;1.38;;;;;;;;;;5080866;28;20077;-79
2022/01/28 10:10:52;;;;;;;3.65;3.35;;;;;;;;;;5066439;28;20044;-80
2022/01/28 10:13:29;;;;;;;2.72;2.53;;;;;;;;;;5079770;28;20114;-79
2022/01/28 10:16:06;;;;;;;1.65;1.23;;;;;;;;;;5070240;28;20040;-80
2022/01/28 10:18:36;;;;;;;4.68;1.73;;;;;;;;;;5073824;28;20106;-80
2022/01/28 10:21:02;;;;;;;2.40;1.92;;;;;;;;;;5075751;28;20032;-80
2022/01/28 10:23:28;;;;;;;3.67;2.38;;;;;;;;;;5064916;28;20035;-79
2022/01/28 10:26:01;;;;;;;6.85;4.25;;;;;;;;;;5081956;28;20036;-80
2022/01/28 10:28:27;;;;;;;4.35;2.83;;;;;;;;;;5068926;28;20048;-80
2022/01/28 10:30:53;;;;;;;2.80;2.60;;;;;;;;;;5075918;28;20059;-80
2022/01/28 10:33:22;;;;;;;1.45;1.35;;;;;;;;;;5062463;28;20576;-80
2022/01/28 10:35:52;;;;;;;10.98;1.80;;;;;;;;;;5079709;28;20529;-80
2022/01/28 10:38:28;;;;;;;0.32;0.32;;;;;;;;;;5081609;28;20024;-79
2022/01/28 10:41:13;;;;;;;2.05;1.95;;;;;;;;;;5074012;28;20034;-82
2022/01/28 10:43:51;;;;;;;1.45;1.35;;;;;;;;;;5079827;28;20036;-81
2022/01/28 10:46:30;;;;;;;1.88;1.75;;;;;;;;;;5086267;28;20024;-81
2022/01/28 10:48:57;;;;;;;6.35;2.92;;;;;;;;;;5053879;28;20047;-81
2022/01/28 10:51:36;;;;;;;5.20;4.68;;;;;;;;;;5066919;28;20035;-82
2022/01/28 10:54:06;;;;;;;3.47;3.17;;;;;;;;;;5067652;28;20059;-79
2022/01/28 10:56:46;;;;;;;14.75;4.25;;;;;;;;;;5079048;28;20048;-81
2022/01/28 10:59:13;;;;;;;1.00;0.98;;;;;;;;;;5087292;28;20020;-81
2022/01/28 11:01:40;;;;;;;1.80;1.02;;;;;;;;;;5079747;28;20035;-81
2022/01/28 11:04:08;;;;;;;2.63;2.42;;;;;;;;;;5068612;28;20047;-81
2022/01/28 11:06:34;;;;;;;4.70;1.23;;;;;;;;;;5068276;28;20028;-81
2022/01/28 11:09:00;;;;;;;2.13;2.03;;;;;;;;;;5068408;28;20141;-81
2022/01/28 11:11:26;;;;;;;2.17;1.90;;;;;;;;;;5068122;28;20054;-81
2022/01/28 11:13:52;;;;;;;2.83;2.58;;;;;;;;;;5072214;28;20118;-87
2022/01/28 11:16:19;;;;;;;2.08;1.80;;;;;;;;;;5065441;28;20439;-85
2022/01/28 11:18:45;;;;;;;2.22;1.88;;;;;;;;;;5076322;28;20028;-87
2022/01/28 11:21:15;;;;;;;4.40;1.85;;;;;;;;;;5076043;28;20040;-86
2022/01/28 11:23:52;;;;;;;2.15;1.55;;;;;;;;;;5067142;28;20036;-86
2022/01/28 11:26:18;;;;;;;3.53;1.73;;;;;;;;;;5065463;28;20068;-85
2022/01/28 11:28:45;;;;;;;0.50;0.50;;;;;;;;;;5066570;28;20104;-87
2022/01/28 11:31:12;;;;;;;1.02;1.02;;;;;;;;;;5078575;28;20095;-88
2022/01/28 11:33:43;;;;;;;2.65;1.77;;;;;;;;;;5057040;28;20757;-86
2022/01/28 11:36:09;;;;;;;2.17;2.08;;;;;;;;;;5068295;28;20044;-86
2022/01/28 11:38:36;;;;;;;1.00;1.00;;;;;;;;;;5064662;28;20047;-87
2022/01/28 11:41:09;;;;;;;3.60;2.28;;;;;;;;;;5066787;28;20115;-86
2022/01/28 11:43:43;;;;;;;1.45;1.17;;;;;;;;;;5076860;28;20783;-87
2022/01/28 11:46:20;;;;;;;8.30;4.55;;;;;;;;;;5075398;28;20032;-90
2022/01/28 11:48:52;;;;;;;2.53;2.40;;;;;;;;;;5077928;28;20028;-90
2022/01/28 11:51:22;;;;;;;2.58;1.85;;;;;;;;;;5070979;28;20922;-89
2022/01/28 11:53:56;;;;;;;1.23;1.15;;;;;;;;;;5074342;28;20511;-86
2022/01/28 11:56:24;;;;;;;2.30;2.10;;;;;;;;;;5069603;28;20081;-87
2022/01/28 11:59:07;;;;;;;6.68;4.43;;;;;;;;;;5072181;28;20099;-86
2022/01/28 12:01:37;;;;;;;5.07;4.60;;;;;;;;;;5072485;28;20033;-86
2022/01/28 12:04:21;;;;;;;2.35;2.15;;;;;;;;;;5070842;28;20058;-85
2022/01/28 12:06:50;;;;;;;5.65;3.00;;;;;;;;;;5070913;28;20036;-86
2022/01/28 12:09:17;;;;;;;2.83;1.73;;;;;;;;;;5070627;28;20060;-87
2022/01/28 12:11:44;;;;;;;2.22;1.95;;;;;;;;;;5073990;28;20474;-87
2022/01/28 12:14:13;;;;;;;2.42;2.22;;;;;;;;;;5080910;28;20032;-87
2022/01/28 12:16:45;;;;;;;1.90;1.58;;;;;;;;;;5079367;28;20073;-88
2022/01/28 12:19:16;;;;;;;4.25;2.13;;;;;;;;;;5062534;28;20023;-87
2022/01/28 12:22:02;;;;;;;3.65;1.73;;;;;;;;;;5076772;28;20147;-86
2022/01/28 12:24:28;;;;;;;3.08;2.78;;;;;;;;;;5075952;28;20028;-85
2022/01/28 12:26:57;;;;;;;1.27;1.27;;;;;;;;;;5083771;28;20518;-86
2022/01/28 12:29:46;;;;;;;7.25;4.53;;;;;;;;;;5082096;28;20510;-87
2022/01/28 12:32:12;;;;;;;4.40;4.00;;;;;;;;;;5065789;28;20495;-88
2022/01/28 12:34:43;;;;;;;3.55;3.17;;;;;;;;;;5072289;28;20190;-87
2022/01/28 12:37:09;;;;;;;2.55;2.35;;;;;;;;;;5081350;28;20036;-86
2022/01/28 12:39:39;;;;;;;3.28;2.67;;;;;;;;;;5084154;28;20020;-87
2022/01/28 12:42:23;;;;;;;5.72;2.88;;;;;;;;;;5084419;28;20088;-87
2022/01/28 12:44:51;;;;;;;1.55;1.45;;;;;;;;;;5080674;28;20837;-87
2022/01/28 12:47:17;;;;;;;3.15;2.95;;;;;;;;;;5082592;28;20423;-87
2022/01/28 12:49:45;;;;;;;3.67;1.93;;;;;;;;;;5086138;28;20036;-87
2022/01/28 12:52:12;;;;;;;2.70;1.30;;;;;;;;;;5081708;28;20331;-89
2022/01/28 12:54:42;;;;;;;7.73;2.20;;;;;;;;;;5081758;28;20031;-88
2022/01/28 12:57:10;;;;;;;4.53;4.00;;;;;;;;;;5080539;28;20035;-89
2022/01/28 12:59:36;;;;;;;1.05;1.05;;;;;;;;;;5082466;28;20032;-88
2022/01/28 13:02:02;;;;;;;3.38;2.75;;;;;;;;;;5081385;28;20028;-88
2022/01/28 13:04:48;;;;;;;1.52;1.42;;;;;;;;;;5081554;28;20046;-87
2022/01/28 13:09:53;;;;;;;2.25;2.15;;;;;;;;;;5085644;28;20274;-89
2022/01/28 13:12:22;;;;;;;1.08;0.77;;;;;;;;;;5085243;28;20034;-88
2022/01/28 13:14:48;;;;;;;17.75;3.63;;;;;;;;;;5068204;28;20032;-86
2022/01/28 13:17:18;;;;;;;2.27;1.53;;;;;;;;;;5077980;28;20032;-88
2022/01/28 13:19:52;;;;;;;11.95;3.50;;;;;;;;;;5085803;28;20031;-89
2022/01/28 13:22:29;;;;;;;4.15;3.85;;;;;;;;;;5083815;28;20032;-88
2022/01/28 13:24:56;;;;;;;1.58;0.80;;;;;;;;;;5082680;28;20031;-89
2022/01/28 13:27:23;;;;;;;1.77;1.35;;;;;;;;;;5079238;28;20048;-89
2022/01/28 13:29:51;;;;;;;4.07;2.08;;;;;;;;;;5083730;28;20031;-88
2022/01/28 13:32:23;;;;;;;0.88;0.88;;;;;;;;;;5065915;28;20060;-85
2022/01/28 13:34:50;;;;;;;0.75;0.75;;;;;;;;;;5078037;28;20026;-88
2022/01/28 13:37:37;;;;;;;3.92;1.65;;;;;;;;;;5064727;28;20039;-89
2022/01/28 13:40:05;;;;;;;6.63;2.83;;;;;;;;;;5064146;28;20411;-89
2022/01/28 13:42:30;;;;;;;;;;;;;;;;;;5082464;28;20031;-87
2022/01/28 13:44:58;;;;;;;3.30;2.25;;;;;;;;;;5080170;28;20341;-89
2022/01/28 13:47:25;;;;;;;8.88;1.75;;;;;;;;;;5065074;28;20086;-87
2022/01/28 13:49:57;;;;;;;1.70;1.30;;;;;;;;;;5085276;28;20395;-89
2022/01/28 13:52:40;;;;;;;1.45;1.35;;;;;;;;;;5081480;28;20040;-86
2022/01/28 13:55:26;;;;;;;1.75;1.65;;;;;;;;;;5061640;28;20039;-88
2022/01/28 13:58:00;;;;;;;2.65;1.95;;;;;;;;;;5078435;28;20032;-90
2022/01/28 14:00:35;;;;;;;2.38;1.73;;;;;;;;;;5062739;28;20038;-90
2022/01/28 14:03:01;;;;;;;2.17;2.00;;;;;;;;;;5070688;28;20021;-91
2022/01/28 14:05:47;;;;;;;2.67;2.50;;;;;;;;;;5083009;28;20032;-90
2022/01/28 14:08:13;;;;;;;0.98;0.98;;;;;;;;;;5079401;28;20119;-86
2022/01/28 14:10:39;;;;;;;1.90;1.23;;;;;;;;;;5063761;28;20035;-87
2022/01/28 14:13:22;;;;;;;10.87;4.00;;;;;;;;;;5070074;28;20171;-86
2022/01/28 14:16:11;;;;;;;8.30;2.88;;;;;;;;;;5066483;28;20858;-87
2022/01/28 14:18:37;;;;;;;10.82;6.45;;;;;;;;;;5071249;28;20036;-88
2022/01/28 14:21:03;;;;;;;7.68;6.53;;;;;;;;;;5074050;28;20816;-88
2022/01/28 14:23:29;;;;;;;3.58;3.38;;;;;;;;;;5068450;28;20024;-87
2022/01/28 14:25:55;;;;;;;2.03;1.92;;;;;;;;;;5065493;28;20032;-87
2022/01/28 14:30:55;;;;;;;9.15;4.50;;;;;;;;;;5070231;28;20067;-88
2022/01/28 14:33:22;;;;;;;6.30;3.10;;;;;;;;;;5073304;28;20051;-87
2022/01/28 14:35:48;;;;;;;1.50;1.27;;;;;;;;;;5071119;28;20511;-86
2022/01/28 14:38:14;;;;;;;10.27;2.33;;;;;;;;;;5070644;28;20034;-86
2022/01/28 14:40:40;;;;;;;3.88;3.08;;;;;;;;;;5078697;28;20128;-86
2022/01/28 14:43:06;;;;;;;2.03;1.92;;;;;;;;;;5068024;28;20028;-85
2022/01/28 14:45:32;;;;;;;1.45;1.45;;;;;;;;;;5071352;28;20046;-87
2022/01/28 14:47:58;;;;;;;3.55;3.00;;;;;;;;;;5076872;28;20035;-85
2022/01/28 14:50:25;;;;;;;2.08;1.98;;;;;;;;;;5078809;28;20028;-88
2022/01/28 14:52:51;;;;;;;2.28;2.13;;;;;;;;;;5066064;28;20056;-85
2022/01/28 14:55:17;;;;;;;0.80;0.80;;;;;;;;;;5082816;28;20038;-87
2022/01/28 14:57:43;;;;;;;7.97;4.47;;;;;;;;;;5080205;28;20040;-86
2022/01/28 15:00:10;;;;;;;1.45;1.35;;;;;;;;;;5079520;28;20033;-87
2022/01/28 15:02:36;;;;;;;6.38;4.28;;;;;;;;;;5088706;28;20582;-88
2022/01/28 15:05:04;;;;;;;7.63;6.30;;;;;;;;;;5069438;28;20043;-87
2022/01/28 15:07:32;;;;;;;3.22;3.03;;;;;;;;;;5068964;28;20032;-87
2022/01/28 15:09:59;;;;;;;2.00;1.90;;;;;;;;;;5080415;28;20110;-87
2022/01/28 15:12:25;;;;;;;2.05;1.90;;;;;;;;;;5060146;28;20075;-88
2022/01/28 15:14:51;;;;;;;2.67;2.47;;;;;;;;;;5078191;28;20712;-87
2022/01/28 15:17:18;;;;;;;2.53;2.03;;;;;;;;;;5061207;28;20047;-87
2022/01/28 15:19:44;;;;;;;1.20;1.15;;;;;;;;;;5079748;28;20144;-85
2022/01/28 15:22:11;;;;;;;3.13;1.23;;;;;;;;;;5077258;28;20683;-88
2022/01/28 15:24:37;;;;;;;1.75;1.65;;;;;;;;;;5075855;28;20032;-85
2022/01/28 15:27:03;;;;;;;1.83;1.73;;;;;;;;;;5059787;28;20043;-85
2022/01/28 15:37:07;;;;;;;1.05;0.95;;;;;;;;;;5074835;28;20048;-89
2022/01/28 15:39:36;;;;;;;7.47;2.20;;;;;;;;;;5072632;28;20028;-88
2022/01/28 15:42:06;;;;;;;3.10;2.90;;;;;;;;;;5066667;28;20312;-88
2022/01/28 15:44:32;;;;;;;2.63;2.03;;;;;;;;;;5074751;28;20036;-88
2022/01/28 15:46:59;;;;;;;1.23;1.07;;;;;;;;;;5079440;28;20849;-88
2022/01/28 15:49:25;;;;;;;2.97;1.70;;;;;;;;;;5067030;28;20705;-90
2022/01/28 15:51:51;;;;;;;3.67;2.03;;;;;;;;;;5067685;28;20500;-88
2022/01/28 15:54:18;;;;;;;2.37;1.87;;;;;;;;;;5071161;28;20028;-89
2022/01/28 15:56:47;;;;;;;0.75;0.75;;;;;;;;;;5070062;28;20566;-88
2022/01/28 15:59:13;;;;;;;2.10;1.80;;;;;;;;;;5064744;28;20052;-88
2022/01/28 16:01:39;;;;;;;2.17;1.85;;;;;;;;;;5074206;28;20059;-88
2022/01/28 16:04:05;;;;;;;2.63;2.15;;;;;;;;;;5081244;28;20064;-90
2022/01/28 16:06:32;;;;;;;2.10;2.00;;;;;;;;;;5080750;28;20515;-88
2022/01/28 16:09:00;;;;;;;7.38;1.88;;;;;;;;;;5080588;28;20028;-89
2022/01/28 16:11:35;;;;;;;3.25;2.85;;;;;;;;;;5066929;28;20032;-86
2022/01/28 16:14:13;;;;;;;2.92;1.48;;;;;;;;;;5068800;28;20031;-84
2022/01/28 16:19:47;;;;;;;3.28;2.20;;;;;;;;;;5037177;28;20048;-93
2022/01/28 16:22:14;;;;;;;2.05;1.10;;;;;;;;;;5023650;28;20041;-93
2022/01/28 16:24:40;;;;;;;1.58;1.48;;;;;;;;;;5039974;28;20041;-91
2022/01/28 16:27:06;;;;;;;1.93;1.77;;;;;;;;;;5038246;28;20213;-91
2022/01/28 16:29:34;;;;;;;1.98;1.88;;;;;;;;;;5048851;28;20064;-92
2022/01/28 16:32:01;;;;;;;0.63;0.63;;;;;;;;;;5050335;28;20124;-92
2022/01/28 16:34:27;;;;;;;2.15;1.35;;;;;;;;;;5045266;28;20037;-90